sensor_id;sensor_type;location;lat;lon;timestamp;P1;durP1;ratioP1;P2;durP2;ratioP2
13696;SDS011;6920;50.080;8.226;2023-08-12T00:00:34;0.65;;;0.65;;
13696;SDS011;6920;50.080;8.226;2023-08-12T00:03:02;1.73;;;0.63;;
13696;SDS011;6920;50.080;8.226;2023-08-12T00:05:30;2.03;;;0.80;;
13696;SDS011;6920;50.080;8.226;2023-08-12T00:07:58;1.02;;;0.63;;
13696;SDS011;6920;50.080;8.226;2023-08-12T00:10:25;0.63;;;0.63;;
13696;SDS011;6920;50.080;8.226;2023-08-12T00:12:52;0.43;;;0.43;;
13696;SDS011;6920;50.080;8.226;2023-08-12T00:15:20;1.00;;;0.95;;
13696;SDS011;6920;50.080;8.226;2023-08-12T00:17:47;1.48;;;0.45;;
13696;SDS011;6920;50.080;8.226;2023-08-12T00:20:14;1.58;;;0.65;;
13696;SDS011;6920;50.080;8.226;2023-08-12T00:22:41;0.73;;;0.73;;
13696;SDS011;6920;50.080;8.226;2023-08-12T00:25:10;0.47;;;0.47;;
13696;SDS011;6920;50.080;8.226;2023-08-12T00:27:37;0.20;;;0.20;;
13696;SDS011;6920;50.080;8.226;2023-08-12T00:30:05;0.40;;;0.30;;
13696;SDS011;6920;50.080;8.226;2023-08-12T00:32:33;0.55;;;0.55;;
13696;SDS011;6920;50.080;8.226;2023-08-12T00:35:00;2.63;;;0.98;;
13696;SDS011;6920;50.080;8.226;2023-08-12T00:37:28;0.73;;;0.73;;
13696;SDS011;6920;50.080;8.226;2023-08-12T00:39:55;0.65;;;0.35;;
13696;SDS011;6920;50.080;8.226;2023-08-12T00:42:24;0.70;;;0.70;;
13696;SDS011;6920;50.080;8.226;2023-08-12T00:44:51;0.50;;;0.32;;
13696;SDS011;6920;50.080;8.226;2023-08-12T00:47:18;0.40;;;0.40;;
13696;SDS011;6920;50.080;8.226;2023-08-12T00:49:45;0.75;;;0.75;;
13696;SDS011;6920;50.080;8.226;2023-08-12T00:52:12;0.47;;;0.45;;
13696;SDS011;6920;50.080;8.226;2023-08-12T00:54:39;0.45;;;0.45;;
13696;SDS011;6920;50.080;8.226;2023-08-12T00:57:06;0.57;;;0.57;;
13696;SDS011;6920;50.080;8.226;2023-08-12T00:59:35;0.77;;;0.77;;
13696;SDS011;6920;50.080;8.226;2023-08-12T01:02:03;0.30;;;0.30;;
13696;SDS011;6920;50.080;8.226;2023-08-12T01:04:31;0.63;;;0.63;;
13696;SDS011;6920;50.080;8.226;2023-08-12T01:06:58;0.60;;;0.60;;
13696;SDS011;6920;50.080;8.226;2023-08-12T01:09:25;0.20;;;0.20;;
13696;SDS011;6920;50.080;8.226;2023-08-12T01:12:00;0.30;;;0.30;;
13696;SDS011;6920;50.080;8.226;2023-08-12T01:14:33;1.00;;;0.52;;
13696;SDS011;6920;50.080;8.226;2023-08-12T01:17:06;0.70;;;0.70;;
13696;SDS011;6920;50.080;8.226;2023-08-12T01:19:36;0.45;;;0.43;;
13696;SDS011;6920;50.080;8.226;2023-08-12T01:22:05;0.10;;;0.10;;
13696;SDS011;6920;50.080;8.226;2023-08-12T01:24:36;0.15;;;0.15;;
13696;SDS011;6920;50.080;8.226;2023-08-12T01:27:04;0.22;;;0.22;;
13696;SDS011;6920;50.080;8.226;2023-08-12T01:29:32;0.85;;;0.73;;
13696;SDS011;6920;50.080;8.226;2023-08-12T01:32:01;0.40;;;0.40;;
13696;SDS011;6920;50.080;8.226;2023-08-12T01:34:35;0.38;;;0.38;;
13696;SDS011;6920;50.080;8.226;2023-08-12T01:37:09;0.47;;;0.47;;
13696;SDS011;6920;50.080;8.226;2023-08-12T01:39:41;3.15;;;1.20;;
13696;SDS011;6920;50.080;8.226;2023-08-12T01:42:11;0.55;;;0.55;;
13696;SDS011;6920;50.080;8.226;2023-08-12T01:44:39;0.40;;;0.40;;
13696;SDS011;6920;50.080;8.226;2023-08-12T01:47:08;0.20;;;0.20;;
13696;SDS011;6920;50.080;8.226;2023-08-12T01:49:35;0.70;;;0.70;;
13696;SDS011;6920;50.080;8.226;2023-08-12T01:52:02;0.98;;;0.50;;
13696;SDS011;6920;50.080;8.226;2023-08-12T01:57:57;0.55;;;0.55;;
13696;SDS011;6920;50.080;8.226;2023-08-12T02:00:24;1.08;;;0.50;;
13696;SDS011;6920;50.080;8.226;2023-08-12T02:02:52;0.63;;;0.63;;
13696;SDS011;6920;50.080;8.226;2023-08-12T02:05:19;0.22;;;0.22;;
13696;SDS011;6920;50.080;8.226;2023-08-12T02:07:46;0.28;;;0.28;;
13696;SDS011;6920;50.080;8.226;2023-08-12T02:10:13;0.65;;;0.57;;
13696;SDS011;6920;50.080;8.226;2023-08-12T02:12:40;0.45;;;0.43;;
13696;SDS011;6920;50.080;8.226;2023-08-12T02:15:09;0.55;;;0.55;;
13696;SDS011;6920;50.080;8.226;2023-08-12T02:17:36;0.50;;;0.50;;
13696;SDS011;6920;50.080;8.226;2023-08-12T02:20:04;0.25;;;0.25;;
13696;SDS011;6920;50.080;8.226;2023-08-12T02:22:32;2.47;;;1.15;;
13696;SDS011;6920;50.080;8.226;2023-08-12T02:24:59;0.30;;;0.25;;
13696;SDS011;6920;50.080;8.226;2023-08-12T02:27:26;0.50;;;0.40;;
13696;SDS011;6920;50.080;8.226;2023-08-12T02:29:53;0.30;;;0.30;;
13696;SDS011;6920;50.080;8.226;2023-08-12T02:32:21;0.85;;;0.40;;
13696;SDS011;6920;50.080;8.226;2023-08-12T02:34:48;0.57;;;0.40;;
13696;SDS011;6920;50.080;8.226;2023-08-12T02:37:15;0.73;;;0.73;;
13696;SDS011;6920;50.080;8.226;2023-08-12T02:39:43;0.95;;;0.95;;
13696;SDS011;6920;50.080;8.226;2023-08-12T02:42:10;0.80;;;0.80;;
13696;SDS011;6920;50.080;8.226;2023-08-12T02:44:37;0.75;;;0.75;;
13696;SDS011;6920;50.080;8.226;2023-08-12T02:47:04;0.55;;;0.55;;
13696;SDS011;6920;50.080;8.226;2023-08-12T02:49:32;0.68;;;0.68;;
13696;SDS011;6920;50.080;8.226;2023-08-12T02:51:59;1.65;;;1.60;;
13696;SDS011;6920;50.080;8.226;2023-08-12T02:54:27;1.98;;;1.88;;
13696;SDS011;6920;50.080;8.226;2023-08-12T02:56:54;1.05;;;1.02;;
13696;SDS011;6920;50.080;8.226;2023-08-12T02:59:21;0.85;;;0.85;;
13696;SDS011;6920;50.080;8.226;2023-08-12T03:01:50;1.63;;;1.25;;
13696;SDS011;6920;50.080;8.226;2023-08-12T03:04:17;0.98;;;0.98;;
13696;SDS011;6920;50.080;8.226;2023-08-12T03:06:46;1.17;;;1.08;;
13696;SDS011;6920;50.080;8.226;2023-08-12T03:09:13;1.83;;;0.77;;
13696;SDS011;6920;50.080;8.226;2023-08-12T03:11:40;1.00;;;1.00;;
13696;SDS011;6920;50.080;8.226;2023-08-12T03:14:07;1.35;;;1.25;;
13696;SDS011;6920;50.080;8.226;2023-08-12T03:16:35;0.50;;;0.50;;
13696;SDS011;6920;50.080;8.226;2023-08-12T03:19:02;0.43;;;0.43;;
13696;SDS011;6920;50.080;8.226;2023-08-12T03:21:29;0.52;;;0.52;;
13696;SDS011;6920;50.080;8.226;2023-08-12T03:23:58;0.95;;;0.95;;
13696;SDS011;6920;50.080;8.226;2023-08-12T03:26:25;0.57;;;0.47;;
13696;SDS011;6920;50.080;8.226;2023-08-12T03:28:52;4.53;;;0.95;;
13696;SDS011;6920;50.080;8.226;2023-08-12T03:31:19;1.15;;;1.08;;
13696;SDS011;6920;50.080;8.226;2023-08-12T03:33:46;0.85;;;0.85;;
13696;SDS011;6920;50.080;8.226;2023-08-12T03:36:13;1.38;;;0.77;;
13696;SDS011;6920;50.080;8.226;2023-08-12T03:38:40;1.08;;;0.88;;
13696;SDS011;6920;50.080;8.226;2023-08-12T03:41:08;1.15;;;1.10;;
13696;SDS011;6920;50.080;8.226;2023-08-12T03:43:35;0.40;;;0.40;;
13696;SDS011;6920;50.080;8.226;2023-08-12T03:46:02;1.00;;;0.90;;
13696;SDS011;6920;50.080;8.226;2023-08-12T03:48:29;0.30;;;0.30;;
13696;SDS011;6920;50.080;8.226;2023-08-12T03:50:57;0.28;;;0.28;;
13696;SDS011;6920;50.080;8.226;2023-08-12T03:53:24;1.95;;;1.02;;
13696;SDS011;6920;50.080;8.226;2023-08-12T03:55:51;0.82;;;0.82;;
13696;SDS011;6920;50.080;8.226;2023-08-12T03:58:20;0.65;;;0.65;;
13696;SDS011;6920;50.080;8.226;2023-08-12T04:00:47;2.88;;;1.23;;
13696;SDS011;6920;50.080;8.226;2023-08-12T04:03:14;1.08;;;0.75;;
13696;SDS011;6920;50.080;8.226;2023-08-12T04:05:47;0.47;;;0.47;;
13696;SDS011;6920;50.080;8.226;2023-08-12T04:08:17;1.08;;;0.68;;
13696;SDS011;6920;50.080;8.226;2023-08-12T04:10:45;1.08;;;1.08;;
13696;SDS011;6920;50.080;8.226;2023-08-12T04:13:12;0.22;;;0.22;;
13696;SDS011;6920;50.080;8.226;2023-08-12T04:15:41;0.65;;;0.65;;
13696;SDS011;6920;50.080;8.226;2023-08-12T04:18:08;1.50;;;1.40;;
13696;SDS011;6920;50.080;8.226;2023-08-12T04:20:36;0.73;;;0.73;;
13696;SDS011;6920;50.080;8.226;2023-08-12T04:23:04;0.50;;;0.43;;
13696;SDS011;6920;50.080;8.226;2023-08-12T04:25:31;0.35;;;0.35;;
13696;SDS011;6920;50.080;8.226;2023-08-12T04:27:58;0.40;;;0.40;;
13696;SDS011;6920;50.080;8.226;2023-08-12T04:30:26;0.22;;;0.22;;
13696;SDS011;6920;50.080;8.226;2023-08-12T04:32:54;1.00;;;0.88;;
13696;SDS011;6920;50.080;8.226;2023-08-12T04:35:21;0.63;;;0.63;;
13696;SDS011;6920;50.080;8.226;2023-08-12T04:37:48;0.63;;;0.63;;
13696;SDS011;6920;50.080;8.226;2023-08-12T04:40:15;0.50;;;0.50;;
13696;SDS011;6920;50.080;8.226;2023-08-12T04:42:42;0.73;;;0.73;;
13696;SDS011;6920;50.080;8.226;2023-08-12T04:45:09;0.45;;;0.45;;
13696;SDS011;6920;50.080;8.226;2023-08-12T04:47:37;0.52;;;0.43;;
13696;SDS011;6920;50.080;8.226;2023-08-12T04:50:06;0.50;;;0.50;;
13696;SDS011;6920;50.080;8.226;2023-08-12T04:52:34;0.50;;;0.50;;
13696;SDS011;6920;50.080;8.226;2023-08-12T04:55:03;0.25;;;0.25;;
13696;SDS011;6920;50.080;8.226;2023-08-12T05:00:30;0.47;;;0.47;;
13696;SDS011;6920;50.080;8.226;2023-08-12T05:02:58;0.60;;;0.52;;
13696;SDS011;6920;50.080;8.226;2023-08-12T05:05:26;1.33;;;1.33;;
13696;SDS011;6920;50.080;8.226;2023-08-12T05:07:53;0.80;;;0.63;;
13696;SDS011;6920;50.080;8.226;2023-08-12T05:10:20;0.68;;;0.68;;
13696;SDS011;6920;50.080;8.226;2023-08-12T05:12:48;0.75;;;0.75;;
13696;SDS011;6920;50.080;8.226;2023-08-12T05:15:17;0.40;;;0.40;;
13696;SDS011;6920;50.080;8.226;2023-08-12T05:17:44;0.80;;;0.75;;
13696;SDS011;6920;50.080;8.226;2023-08-12T05:20:11;0.68;;;0.68;;
13696;SDS011;6920;50.080;8.226;2023-08-12T05:22:40;0.68;;;0.57;;
13696;SDS011;6920;50.080;8.226;2023-08-12T05:25:07;0.75;;;0.75;;
13696;SDS011;6920;50.080;8.226;2023-08-12T05:27:34;2.63;;;0.90;;
13696;SDS011;6920;50.080;8.226;2023-08-12T05:30:02;0.63;;;0.63;;
13696;SDS011;6920;50.080;8.226;2023-08-12T05:32:29;0.65;;;0.65;;
13696;SDS011;6920;50.080;8.226;2023-08-12T05:34:56;0.80;;;0.80;;
13696;SDS011;6920;50.080;8.226;2023-08-12T05:37:23;0.45;;;0.45;;
13696;SDS011;6920;50.080;8.226;2023-08-12T05:39:52;1.75;;;0.93;;
13696;SDS011;6920;50.080;8.226;2023-08-12T05:42:19;0.43;;;0.43;;
13696;SDS011;6920;50.080;8.226;2023-08-12T05:44:46;0.77;;;0.73;;
13696;SDS011;6920;50.080;8.226;2023-08-12T05:47:13;1.17;;;1.17;;
13696;SDS011;6920;50.080;8.226;2023-08-12T05:49:40;0.57;;;0.57;;
13696;SDS011;6920;50.080;8.226;2023-08-12T05:52:07;2.92;;;1.02;;
13696;SDS011;6920;50.080;8.226;2023-08-12T05:54:34;0.50;;;0.50;;
13696;SDS011;6920;50.080;8.226;2023-08-12T05:57:03;0.45;;;0.45;;
13696;SDS011;6920;50.080;8.226;2023-08-12T05:59:30;0.85;;;0.77;;
13696;SDS011;6920;50.080;8.226;2023-08-12T06:01:57;1.00;;;0.95;;
13696;SDS011;6920;50.080;8.226;2023-08-12T06:04:24;1.10;;;1.10;;
13696;SDS011;6920;50.080;8.226;2023-08-12T06:06:52;9.40;;;1.10;;
13696;SDS011;6920;50.080;8.226;2023-08-12T06:09:19;0.80;;;0.80;;
13696;SDS011;6920;50.080;8.226;2023-08-12T06:11:46;0.80;;;0.80;;
13696;SDS011;6920;50.080;8.226;2023-08-12T06:14:14;1.45;;;1.35;;
13696;SDS011;6920;50.080;8.226;2023-08-12T06:16:42;0.88;;;0.88;;
13696;SDS011;6920;50.080;8.226;2023-08-12T06:19:09;1.38;;;1.27;;
13696;SDS011;6920;50.080;8.226;2023-08-12T06:21:36;1.38;;;1.38;;
13696;SDS011;6920;50.080;8.226;2023-08-12T06:24:04;1.00;;;1.00;;
13696;SDS011;6920;50.080;8.226;2023-08-12T06:26:31;1.58;;;1.48;;
13696;SDS011;6920;50.080;8.226;2023-08-12T06:28:59;0.93;;;0.90;;
13696;SDS011;6920;50.080;8.226;2023-08-12T06:31:28;3.22;;;1.30;;
13696;SDS011;6920;50.080;8.226;2023-08-12T06:33:55;1.20;;;1.20;;
13696;SDS011;6920;50.080;8.226;2023-08-12T06:36:23;1.50;;;1.50;;
13696;SDS011;6920;50.080;8.226;2023-08-12T06:38:50;1.45;;;1.35;;
13696;SDS011;6920;50.080;8.226;2023-08-12T06:41:18;0.98;;;0.93;;
13696;SDS011;6920;50.080;8.226;2023-08-12T06:43:45;1.45;;;1.45;;
13696;SDS011;6920;50.080;8.226;2023-08-12T06:46:12;1.55;;;1.45;;
13696;SDS011;6920;50.080;8.226;2023-08-12T06:48:41;1.17;;;1.08;;
13696;SDS011;6920;50.080;8.226;2023-08-12T06:51:09;1.42;;;1.33;;
13696;SDS011;6920;50.080;8.226;2023-08-12T06:53:37;1.65;;;1.55;;
13696;SDS011;6920;50.080;8.226;2023-08-12T06:56:05;1.23;;;1.13;;
13696;SDS011;6920;50.080;8.226;2023-08-12T06:58:32;1.33;;;1.00;;
13696;SDS011;6920;50.080;8.226;2023-08-12T07:00:59;1.17;;;1.17;;
13696;SDS011;6920;50.080;8.226;2023-08-12T07:03:27;1.10;;;1.08;;
13696;SDS011;6920;50.080;8.226;2023-08-12T07:05:55;0.85;;;0.85;;
13696;SDS011;6920;50.080;8.226;2023-08-12T07:08:23;1.27;;;1.17;;
13696;SDS011;6920;50.080;8.226;2023-08-12T07:10:52;1.05;;;1.05;;
13696;SDS011;6920;50.080;8.226;2023-08-12T07:13:19;2.00;;;1.83;;
13696;SDS011;6920;50.080;8.226;2023-08-12T07:15:47;1.77;;;1.52;;
13696;SDS011;6920;50.080;8.226;2023-08-12T07:18:14;1.80;;;1.65;;
13696;SDS011;6920;50.080;8.226;2023-08-12T07:20:42;1.77;;;1.67;;
13696;SDS011;6920;50.080;8.226;2023-08-12T07:23:11;1.85;;;1.75;;
13696;SDS011;6920;50.080;8.226;2023-08-12T07:25:39;1.90;;;1.80;;
13696;SDS011;6920;50.080;8.226;2023-08-12T07:28:06;1.55;;;1.45;;
13696;SDS011;6920;50.080;8.226;2023-08-12T07:30:34;1.40;;;1.30;;
13696;SDS011;6920;50.080;8.226;2023-08-12T07:33:04;2.08;;;1.98;;
13696;SDS011;6920;50.080;8.226;2023-08-12T07:35:32;1.15;;;1.15;;
13696;SDS011;6920;50.080;8.226;2023-08-12T07:37:59;2.50;;;1.77;;
13696;SDS011;6920;50.080;8.226;2023-08-12T07:40:28;2.53;;;2.38;;
13696;SDS011;6920;50.080;8.226;2023-08-12T07:42:55;1.85;;;1.75;;
13696;SDS011;6920;50.080;8.226;2023-08-12T07:45:23;2.00;;;1.90;;
13696;SDS011;6920;50.080;8.226;2023-08-12T07:47:50;10.07;;;2.38;;
13696;SDS011;6920;50.080;8.226;2023-08-12T07:50:18;1.25;;;1.25;;
13696;SDS011;6920;50.080;8.226;2023-08-12T07:52:45;2.70;;;1.60;;
13696;SDS011;6920;50.080;8.226;2023-08-12T07:55:12;4.15;;;2.38;;
13696;SDS011;6920;50.080;8.226;2023-08-12T07:57:42;2.28;;;2.08;;
13696;SDS011;6920;50.080;8.226;2023-08-12T08:00:11;1.77;;;1.73;;
13696;SDS011;6920;50.080;8.226;2023-08-12T08:02:39;2.13;;;2.00;;
13696;SDS011;6920;50.080;8.226;2023-08-12T08:05:07;1.42;;;1.15;;
13696;SDS011;6920;50.080;8.226;2023-08-12T08:07:34;2.10;;;1.85;;
13696;SDS011;6920;50.080;8.226;2023-08-12T08:10:02;1.48;;;1.38;;
13696;SDS011;6920;50.080;8.226;2023-08-12T08:12:29;3.10;;;2.20;;
13696;SDS011;6920;50.080;8.226;2023-08-12T08:14:58;2.05;;;1.95;;
13696;SDS011;6920;50.080;8.226;2023-08-12T08:17:25;1.65;;;1.40;;
13696;SDS011;6920;50.080;8.226;2023-08-12T08:19:53;2.13;;;2.03;;
13696;SDS011;6920;50.080;8.226;2023-08-12T08:22:20;1.30;;;1.30;;
13696;SDS011;6920;50.080;8.226;2023-08-12T08:24:50;2.22;;;1.98;;
13696;SDS011;6920;50.080;8.226;2023-08-12T08:27:17;1.92;;;1.85;;
13696;SDS011;6920;50.080;8.226;2023-08-12T08:29:45;1.27;;;1.23;;
13696;SDS011;6920;50.080;8.226;2023-08-12T08:32:14;2.97;;;2.22;;
13696;SDS011;6920;50.080;8.226;2023-08-12T08:34:42;1.27;;;1.17;;
13696;SDS011;6920;50.080;8.226;2023-08-12T08:37:09;1.75;;;0.93;;
13696;SDS011;6920;50.080;8.226;2023-08-12T08:39:37;1.35;;;1.25;;
13696;SDS011;6920;50.080;8.226;2023-08-12T08:42:04;1.45;;;1.35;;
13696;SDS011;6920;50.080;8.226;2023-08-12T08:44:33;1.55;;;1.30;;
13696;SDS011;6920;50.080;8.226;2023-08-12T08:47:00;1.75;;;1.25;;
13696;SDS011;6920;50.080;8.226;2023-08-12T08:49:30;1.88;;;1.42;;
13696;SDS011;6920;50.080;8.226;2023-08-12T08:51:58;1.48;;;1.17;;
13696;SDS011;6920;50.080;8.226;2023-08-12T08:54:26;1.17;;;1.05;;
13696;SDS011;6920;50.080;8.226;2023-08-12T08:56:54;0.95;;;0.95;;
13696;SDS011;6920;50.080;8.226;2023-08-12T08:59:21;2.15;;;1.52;;
13696;SDS011;6920;50.080;8.226;2023-08-12T09:01:49;0.55;;;0.55;;
13696;SDS011;6920;50.080;8.226;2023-08-12T09:04:17;2.00;;;1.90;;
13696;SDS011;6920;50.080;8.226;2023-08-12T09:06:49;1.35;;;1.25;;
13696;SDS011;6920;50.080;8.226;2023-08-12T09:09:19;1.73;;;1.63;;
13696;SDS011;6920;50.080;8.226;2023-08-12T09:11:48;1.38;;;1.38;;
13696;SDS011;6920;50.080;8.226;2023-08-12T09:14:16;0.95;;;0.95;;
13696;SDS011;6920;50.080;8.226;2023-08-12T09:16:44;1.48;;;1.35;;
13696;SDS011;6920;50.080;8.226;2023-08-12T09:19:11;1.08;;;0.70;;
13696;SDS011;6920;50.080;8.226;2023-08-12T09:21:41;1.30;;;1.20;;
13696;SDS011;6920;50.080;8.226;2023-08-12T09:24:13;0.98;;;0.98;;
13696;SDS011;6920;50.080;8.226;2023-08-12T09:26:42;1.48;;;1.38;;
13696;SDS011;6920;50.080;8.226;2023-08-12T09:29:17;2.03;;;1.85;;
13696;SDS011;6920;50.080;8.226;2023-08-12T09:31:46;1.42;;;1.42;;
13696;SDS011;6920;50.080;8.226;2023-08-12T09:34:16;0.82;;;0.63;;
13696;SDS011;6920;50.080;8.226;2023-08-12T09:36:44;0.88;;;0.88;;
13696;SDS011;6920;50.080;8.226;2023-08-12T09:39:14;0.82;;;0.82;;
13696;SDS011;6920;50.080;8.226;2023-08-12T09:41:42;0.85;;;0.85;;
13696;SDS011;6920;50.080;8.226;2023-08-12T09:44:09;1.23;;;1.23;;
13696;SDS011;6920;50.080;8.226;2023-08-12T09:46:36;0.80;;;0.80;;
13696;SDS011;6920;50.080;8.226;2023-08-12T09:49:05;1.13;;;1.13;;
13696;SDS011;6920;50.080;8.226;2023-08-12T09:51:36;0.65;;;0.65;;
13696;SDS011;6920;50.080;8.226;2023-08-12T09:54:04;0.68;;;0.65;;
13696;SDS011;6920;50.080;8.226;2023-08-12T09:56:33;0.80;;;0.80;;
13696;SDS011;6920;50.080;8.226;2023-08-12T09:59:03;0.70;;;0.70;;
13696;SDS011;6920;50.080;8.226;2023-08-12T10:01:33;0.95;;;0.95;;
13696;SDS011;6920;50.080;8.226;2023-08-12T10:04:00;1.52;;;1.35;;
13696;SDS011;6920;50.080;8.226;2023-08-12T10:06:31;1.13;;;1.13;;
13696;SDS011;6920;50.080;8.226;2023-08-12T10:09:00;1.08;;;1.08;;
13696;SDS011;6920;50.080;8.226;2023-08-12T10:11:29;0.88;;;0.88;;
13696;SDS011;6920;50.080;8.226;2023-08-12T10:14:04;0.95;;;0.95;;
13696;SDS011;6920;50.080;8.226;2023-08-12T10:16:35;1.05;;;0.95;;
13696;SDS011;6920;50.080;8.226;2023-08-12T10:19:03;1.73;;;1.17;;
13696;SDS011;6920;50.080;8.226;2023-08-12T10:21:33;1.50;;;1.40;;
13696;SDS011;6920;50.080;8.226;2023-08-12T10:24:00;0.77;;;0.77;;
13696;SDS011;6920;50.080;8.226;2023-08-12T10:29:00;0.85;;;0.80;;
13696;SDS011;6920;50.080;8.226;2023-08-12T10:31:27;1.83;;;1.25;;
13696;SDS011;6920;50.080;8.226;2023-08-12T10:33:56;0.95;;;0.95;;
13696;SDS011;6920;50.080;8.226;2023-08-12T10:36:26;2.10;;;1.10;;
13696;SDS011;6920;50.080;8.226;2023-08-12T10:38:55;1.63;;;1.48;;
13696;SDS011;6920;50.080;8.226;2023-08-12T10:41:23;1.48;;;1.40;;
13696;SDS011;6920;50.080;8.226;2023-08-12T10:43:54;0.28;;;0.28;;
13696;SDS011;6920;50.080;8.226;2023-08-12T10:46:28;1.85;;;1.25;;
13696;SDS011;6920;50.080;8.226;2023-08-12T10:48:57;1.08;;;1.08;;
13696;SDS011;6920;50.080;8.226;2023-08-12T10:54:21;0.68;;;0.68;;
13696;SDS011;6920;50.080;8.226;2023-08-12T10:57:05;0.47;;;0.47;;
13696;SDS011;6920;50.080;8.226;2023-08-12T10:59:50;1.05;;;1.00;;
13696;SDS011;6920;50.080;8.226;2023-08-12T11:02:19;0.85;;;0.85;;
13696;SDS011;6920;50.080;8.226;2023-08-12T11:04:48;0.50;;;0.50;;
13696;SDS011;6920;50.080;8.226;2023-08-12T11:07:18;1.05;;;1.05;;
13696;SDS011;6920;50.080;8.226;2023-08-12T11:09:46;0.90;;;0.90;;
13696;SDS011;6920;50.080;8.226;2023-08-12T11:12:18;0.50;;;0.50;;
13696;SDS011;6920;50.080;8.226;2023-08-12T11:14:56;0.63;;;0.63;;
13696;SDS011;6920;50.080;8.226;2023-08-12T11:17:29;0.63;;;0.63;;
13696;SDS011;6920;50.080;8.226;2023-08-12T11:20:02;1.00;;;1.00;;
13696;SDS011;6920;50.080;8.226;2023-08-12T11:22:31;0.68;;;0.68;;
13696;SDS011;6920;50.080;8.226;2023-08-12T11:25:00;0.35;;;0.35;;
13696;SDS011;6920;50.080;8.226;2023-08-12T11:27:27;1.08;;;0.73;;
13696;SDS011;6920;50.080;8.226;2023-08-12T11:29:56;0.65;;;0.65;;
13696;SDS011;6920;50.080;8.226;2023-08-12T11:32:23;0.40;;;0.40;;
13696;SDS011;6920;50.080;8.226;2023-08-12T11:34:50;0.28;;;0.28;;
13696;SDS011;6920;50.080;8.226;2023-08-12T11:37:17;0.20;;;0.20;;
13696;SDS011;6920;50.080;8.226;2023-08-12T11:39:44;0.52;;;0.52;;
13696;SDS011;6920;50.080;8.226;2023-08-12T11:42:11;0.65;;;0.43;;
13696;SDS011;6920;50.080;8.226;2023-08-12T11:44:39;0.73;;;0.70;;
13696;SDS011;6920;50.080;8.226;2023-08-12T11:47:08;0.32;;;0.32;;
13696;SDS011;6920;50.080;8.226;2023-08-12T11:49:35;0.28;;;0.28;;
13696;SDS011;6920;50.080;8.226;2023-08-12T11:52:05;0.40;;;0.40;;
13696;SDS011;6920;50.080;8.226;2023-08-12T11:54:35;0.50;;;0.43;;
13696;SDS011;6920;50.080;8.226;2023-08-12T11:57:02;0.35;;;0.35;;
13696;SDS011;6920;50.080;8.226;2023-08-12T11:59:30;0.38;;;0.38;;
13696;SDS011;6920;50.080;8.226;2023-08-12T12:01:57;0.38;;;0.38;;
13696;SDS011;6920;50.080;8.226;2023-08-12T12:04:31;0.90;;;0.40;;
13696;SDS011;6920;50.080;8.226;2023-08-12T12:06:59;0.50;;;0.50;;
13696;SDS011;6920;50.080;8.226;2023-08-12T12:09:31;0.43;;;0.43;;
13696;SDS011;6920;50.080;8.226;2023-08-12T12:11:59;0.68;;;0.68;;
13696;SDS011;6920;50.080;8.226;2023-08-12T12:14:26;0.20;;;0.20;;
13696;SDS011;6920;50.080;8.226;2023-08-12T12:16:54;0.60;;;0.47;;
13696;SDS011;6920;50.080;8.226;2023-08-12T12:19:22;1.00;;;0.47;;
13696;SDS011;6920;50.080;8.226;2023-08-12T12:21:52;0.50;;;0.50;;
13696;SDS011;6920;50.080;8.226;2023-08-12T12:24:20;0.93;;;0.60;;
13696;SDS011;6920;50.080;8.226;2023-08-12T12:26:47;0.20;;;0.20;;
13696;SDS011;6920;50.080;8.226;2023-08-12T12:29:14;0.50;;;0.50;;
13696;SDS011;6920;50.080;8.226;2023-08-12T12:31:42;0.43;;;0.43;;
13696;SDS011;6920;50.080;8.226;2023-08-12T12:34:09;0.40;;;0.40;;
13696;SDS011;6920;50.080;8.226;2023-08-12T12:36:37;0.30;;;0.30;;
13696;SDS011;6920;50.080;8.226;2023-08-12T12:39:06;0.38;;;0.38;;
13696;SDS011;6920;50.080;8.226;2023-08-12T12:41:33;0.60;;;0.32;;
13696;SDS011;6920;50.080;8.226;2023-08-12T12:44:01;0.20;;;0.20;;
13696;SDS011;6920;50.080;8.226;2023-08-12T12:46:29;0.90;;;0.55;;
13696;SDS011;6920;50.080;8.226;2023-08-12T12:48:56;0.38;;;0.38;;
13696;SDS011;6920;50.080;8.226;2023-08-12T12:51:24;0.40;;;0.40;;
13696;SDS011;6920;50.080;8.226;2023-08-12T12:53:51;0.40;;;0.40;;
13696;SDS011;6920;50.080;8.226;2023-08-12T12:56:20;0.40;;;0.40;;
13696;SDS011;6920;50.080;8.226;2023-08-12T12:58:47;1.17;;;0.35;;
13696;SDS011;6920;50.080;8.226;2023-08-12T13:01:15;0.73;;;0.22;;
13696;SDS011;6920;50.080;8.226;2023-08-12T13:03:42;0.28;;;0.28;;
13696;SDS011;6920;50.080;8.226;2023-08-12T13:06:09;0.45;;;0.45;;
13696;SDS011;6920;50.080;8.226;2023-08-12T13:08:36;0.30;;;0.30;;
13696;SDS011;6920;50.080;8.226;2023-08-12T13:11:03;1.15;;;0.70;;
13696;SDS011;6920;50.080;8.226;2023-08-12T13:13:32;0.40;;;0.40;;
13696;SDS011;6920;50.080;8.226;2023-08-12T13:16:00;1.63;;;0.57;;
13696;SDS011;6920;50.080;8.226;2023-08-12T13:18:27;0.55;;;0.55;;
13696;SDS011;6920;50.080;8.226;2023-08-12T13:20:55;0.40;;;0.40;;
13696;SDS011;6920;50.080;8.226;2023-08-12T13:23:22;0.40;;;0.40;;
13696;SDS011;6920;50.080;8.226;2023-08-12T13:25:49;0.30;;;0.30;;
13696;SDS011;6920;50.080;8.226;2023-08-12T13:28:17;0.13;;;0.13;;
13696;SDS011;6920;50.080;8.226;2023-08-12T13:30:47;1.52;;;1.42;;
13696;SDS011;6920;50.080;8.226;2023-08-12T13:33:14;1.63;;;0.52;;
13696;SDS011;6920;50.080;8.226;2023-08-12T13:35:42;0.40;;;0.40;;
13696;SDS011;6920;50.080;8.226;2023-08-12T13:38:09;0.47;;;0.47;;
13696;SDS011;6920;50.080;8.226;2023-08-12T13:40:36;0.28;;;0.28;;
13696;SDS011;6920;50.080;8.226;2023-08-12T13:43:04;0.63;;;0.63;;
13696;SDS011;6920;50.080;8.226;2023-08-12T13:45:31;0.80;;;0.80;;
13696;SDS011;6920;50.080;8.226;2023-08-12T13:47:59;0.60;;;0.60;;
13696;SDS011;6920;50.080;8.226;2023-08-12T13:50:27;1.65;;;0.50;;
13696;SDS011;6920;50.080;8.226;2023-08-12T13:52:54;0.30;;;0.30;;
13696;SDS011;6920;50.080;8.226;2023-08-12T13:55:22;0.60;;;0.60;;
13696;SDS011;6920;50.080;8.226;2023-08-12T13:57:49;0.30;;;0.30;;
13696;SDS011;6920;50.080;8.226;2023-08-12T14:00:17;0.30;;;0.30;;
13696;SDS011;6920;50.080;8.226;2023-08-12T14:02:46;0.60;;;0.60;;
13696;SDS011;6920;50.080;8.226;2023-08-12T14:05:15;0.45;;;0.45;;
13696;SDS011;6920;50.080;8.226;2023-08-12T14:07:42;0.50;;;0.50;;
13696;SDS011;6920;50.080;8.226;2023-08-12T14:10:09;0.65;;;0.65;;
13696;SDS011;6920;50.080;8.226;2023-08-12T14:12:37;0.70;;;0.70;;
13696;SDS011;6920;50.080;8.226;2023-08-12T14:15:04;0.57;;;0.40;;
13696;SDS011;6920;50.080;8.226;2023-08-12T14:17:32;0.47;;;0.32;;
13696;SDS011;6920;50.080;8.226;2023-08-12T14:20:00;0.40;;;0.40;;
13696;SDS011;6920;50.080;8.226;2023-08-12T14:22:28;0.50;;;0.50;;
13696;SDS011;6920;50.080;8.226;2023-08-12T14:24:56;0.43;;;0.43;;
13696;SDS011;6920;50.080;8.226;2023-08-12T14:27:23;1.50;;;0.55;;
13696;SDS011;6920;50.080;8.226;2023-08-12T14:29:51;0.17;;;0.17;;
13696;SDS011;6920;50.080;8.226;2023-08-12T14:32:18;0.20;;;0.20;;
13696;SDS011;6920;50.080;8.226;2023-08-12T14:34:45;0.43;;;0.43;;
13696;SDS011;6920;50.080;8.226;2023-08-12T14:37:12;0.63;;;0.63;;
13696;SDS011;6920;50.080;8.226;2023-08-12T14:39:42;0.25;;;0.25;;
13696;SDS011;6920;50.080;8.226;2023-08-12T14:42:09;0.32;;;0.32;;
13696;SDS011;6920;50.080;8.226;2023-08-12T14:44:36;0.20;;;0.20;;
13696;SDS011;6920;50.080;8.226;2023-08-12T14:47:04;0.50;;;0.50;;
13696;SDS011;6920;50.080;8.226;2023-08-12T14:49:32;0.25;;;0.25;;
13696;SDS011;6920;50.080;8.226;2023-08-12T14:51:59;0.50;;;0.50;;
13696;SDS011;6920;50.080;8.226;2023-08-12T14:54:26;0.40;;;0.40;;
13696;SDS011;6920;50.080;8.226;2023-08-12T14:56:55;0.47;;;0.47;;
13696;SDS011;6920;50.080;8.226;2023-08-12T14:59:22;0.32;;;0.32;;
13696;SDS011;6920;50.080;8.226;2023-08-12T15:01:50;0.45;;;0.45;;
13696;SDS011;6920;50.080;8.226;2023-08-12T15:04:17;0.55;;;0.55;;
13696;SDS011;6920;50.080;8.226;2023-08-12T15:06:47;0.10;;;0.10;;
13696;SDS011;6920;50.080;8.226;2023-08-12T15:09:14;0.45;;;0.45;;
13696;SDS011;6920;50.080;8.226;2023-08-12T15:11:42;0.55;;;0.43;;
13696;SDS011;6920;50.080;8.226;2023-08-12T15:14:10;0.13;;;0.13;;
13696;SDS011;6920;50.080;8.226;2023-08-12T15:16:38;0.52;;;0.52;;